Terminal Aerodrome Forecast
Issued by NWS

Home | Current Version | Previous Version | Text Only | Print | Product List | Glossary On
Versions: 1 2 3 4 5 6 7 8 9 10 11 12 13 14 15
000
FTUS43 KICT 152300
TAFCNU
TAF
KCNU 152328Z 1600/1624 17013KT P6SM BKN250
     FM161500 19026G35KT P6SM SCT250=

USA.gov is the U.S. government's official web portal to all federal, state and local government web resources and services.